sensor_id;sensor_type;location;lat;lon;timestamp;temperature;humidity
16491;DHT22;8356;51.214;3.270;2023-07-13T00:01:37;487.00;2380.80
16491;DHT22;8356;51.214;3.270;2023-07-13T00:04:04;486.80;2380.80
16491;DHT22;8356;51.214;3.270;2023-07-13T00:06:29;486.90;2380.80
16491;DHT22;8356;51.214;3.270;2023-07-13T00:08:58;486.90;2380.80
16491;DHT22;8356;51.214;3.270;2023-07-13T00:11:24;486.80;2380.80
16491;DHT22;8356;51.214;3.270;2023-07-13T00:13:51;486.90;2380.80
16491;DHT22;8356;51.214;3.270;2023-07-13T00:16:17;486.50;2380.80
16491;DHT22;8356;51.214;3.270;2023-07-13T00:18:44;486.90;2380.80
16491;DHT22;8356;51.214;3.270;2023-07-13T00:21:10;486.90;2380.80
16491;DHT22;8356;51.214;3.270;2023-07-13T00:23:37;486.80;2380.80
16491;DHT22;8356;51.214;3.270;2023-07-13T00:26:05;486.80;2380.80
16491;DHT22;8356;51.214;3.270;2023-07-13T00:28:31;486.70;2380.80
16491;DHT22;8356;51.214;3.270;2023-07-13T00:30:57;486.70;2380.80
16491;DHT22;8356;51.214;3.270;2023-07-13T00:33:22;486.60;2380.80
16491;DHT22;8356;51.214;3.270;2023-07-13T00:35:48;486.50;2380.80
16491;DHT22;8356;51.214;3.270;2023-07-13T00:38:14;486.60;2380.80
16491;DHT22;8356;51.214;3.270;2023-07-13T00:40:40;486.70;2380.80
16491;DHT22;8356;51.214;3.270;2023-07-13T00:43:27;486.80;2380.80
16491;DHT22;8356;51.214;3.270;2023-07-13T00:48:22;486.80;2380.80
16491;DHT22;8356;51.214;3.270;2023-07-13T00:50:52;486.80;2380.80
16491;DHT22;8356;51.214;3.270;2023-07-13T00:53:19;486.70;2380.80
16491;DHT22;8356;51.214;3.270;2023-07-13T00:55:47;486.70;2380.80
16491;DHT22;8356;51.214;3.270;2023-07-13T00:58:14;486.80;2380.80
16491;DHT22;8356;51.214;3.270;2023-07-13T01:00:41;486.80;2380.80
16491;DHT22;8356;51.214;3.270;2023-07-13T01:03:06;486.70;2380.80
16491;DHT22;8356;51.214;3.270;2023-07-13T01:05:34;486.80;2380.80
16491;DHT22;8356;51.214;3.270;2023-07-13T01:08:01;486.70;2380.80
16491;DHT22;8356;51.214;3.270;2023-07-13T01:10:28;486.60;2380.80
16491;DHT22;8356;51.214;3.270;2023-07-13T01:12:54;486.60;2380.80
16491;DHT22;8356;51.214;3.270;2023-07-13T01:15:41;486.60;2380.80
16491;DHT22;8356;51.214;3.270;2023-07-13T01:18:10;486.50;2380.80
16491;DHT22;8356;51.214;3.270;2023-07-13T01:20:39;486.40;2380.80
16491;DHT22;8356;51.214;3.270;2023-07-13T01:23:10;486.40;2380.80
16491;DHT22;8356;51.214;3.270;2023-07-13T01:25:37;486.40;2380.80
16491;DHT22;8356;51.214;3.270;2023-07-13T01:28:05;486.40;2380.80
16491;DHT22;8356;51.214;3.270;2023-07-13T01:30:30;486.40;2380.80
16491;DHT22;8356;51.214;3.270;2023-07-13T01:32:57;486.50;2380.80
16491;DHT22;8356;51.214;3.270;2023-07-13T01:35:23;486.60;2380.80
16491;DHT22;8356;51.214;3.270;2023-07-13T01:37:51;486.50;2380.80
16491;DHT22;8356;51.214;3.270;2023-07-13T01:40:16;486.60;2380.80
16491;DHT22;8356;51.214;3.270;2023-07-13T01:42:42;486.50;2380.80
16491;DHT22;8356;51.214;3.270;2023-07-13T01:45:08;486.50;2380.80
16491;DHT22;8356;51.214;3.270;2023-07-13T01:47:33;486.40;2380.80
16491;DHT22;8356;51.214;3.270;2023-07-13T01:49:59;486.40;2380.80
16491;DHT22;8356;51.214;3.270;2023-07-13T01:52:25;461.70;2380.80
16491;DHT22;8356;51.214;3.270;2023-07-13T01:54:50;461.70;2380.80
16491;DHT22;8356;51.214;3.270;2023-07-13T01:57:16;461.70;2380.80
16491;DHT22;8356;51.214;3.270;2023-07-13T01:59:42;486.40;2380.80
16491;DHT22;8356;51.214;3.270;2023-07-13T02:02:07;486.40;2380.80
16491;DHT22;8356;51.214;3.270;2023-07-13T02:04:33;486.50;2380.80
16491;DHT22;8356;51.214;3.270;2023-07-13T02:06:59;486.50;2380.80
16491;DHT22;8356;51.214;3.270;2023-07-13T02:09:25;486.40;2380.80
16491;DHT22;8356;51.214;3.270;2023-07-13T02:11:50;461.70;2380.80
16491;DHT22;8356;51.214;3.270;2023-07-13T02:14:16;461.70;2380.80
16491;DHT22;8356;51.214;3.270;2023-07-13T02:16:42;461.50;2380.80
16491;DHT22;8356;51.214;3.270;2023-07-13T02:19:08;461.60;2380.80
16491;DHT22;8356;51.214;3.270;2023-07-13T02:21:34;461.60;2380.80
16491;DHT22;8356;51.214;3.270;2023-07-13T02:24:00;461.70;2380.80
16491;DHT22;8356;51.214;3.270;2023-07-13T02:26:26;461.70;2380.80
16491;DHT22;8356;51.214;3.270;2023-07-13T02:28:52;486.40;2380.80
16491;DHT22;8356;51.214;3.270;2023-07-13T02:31:18;486.40;2380.80
16491;DHT22;8356;51.214;3.270;2023-07-13T02:33:44;461.70;2380.80
16491;DHT22;8356;51.214;3.270;2023-07-13T02:36:11;486.40;2380.80
16491;DHT22;8356;51.214;3.270;2023-07-13T02:38:37;486.40;2380.80
16491;DHT22;8356;51.214;3.270;2023-07-13T02:41:04;486.40;2380.80
16491;DHT22;8356;51.214;3.270;2023-07-13T02:43:30;486.40;2380.80
16491;DHT22;8356;51.214;3.270;2023-07-13T02:45:56;486.40;2380.80
16491;DHT22;8356;51.214;3.270;2023-07-13T02:48:22;461.70;2380.80
16491;DHT22;8356;51.214;3.270;2023-07-13T02:50:47;461.70;2380.80
16491;DHT22;8356;51.214;3.270;2023-07-13T02:53:13;461.60;2380.80
16491;DHT22;8356;51.214;3.270;2023-07-13T02:55:39;461.70;2380.80
16491;DHT22;8356;51.214;3.270;2023-07-13T02:58:06;461.70;2380.80
16491;DHT22;8356;51.214;3.270;2023-07-13T03:00:32;461.70;2380.80
16491;DHT22;8356;51.214;3.270;2023-07-13T03:02:57;461.60;2380.80
16491;DHT22;8356;51.214;3.270;2023-07-13T03:05:24;461.60;2380.80
16491;DHT22;8356;51.214;3.270;2023-07-13T03:07:49;461.70;2380.80
16491;DHT22;8356;51.214;3.270;2023-07-13T03:10:15;461.70;2380.80
16491;DHT22;8356;51.214;3.270;2023-07-13T03:12:42;461.70;2380.80
16491;DHT22;8356;51.214;3.270;2023-07-13T03:15:08;461.70;2380.80
16491;DHT22;8356;51.214;3.270;2023-07-13T03:17:33;461.70;2380.80
16491;DHT22;8356;51.214;3.270;2023-07-13T03:19:59;461.70;2380.80
16491;DHT22;8356;51.214;3.270;2023-07-13T03:22:25;461.70;2380.80
16491;DHT22;8356;51.214;3.270;2023-07-13T03:24:50;461.50;2380.80
16491;DHT22;8356;51.214;3.270;2023-07-13T03:27:17;461.50;2380.80
16491;DHT22;8356;51.214;3.270;2023-07-13T03:29:43;461.50;2380.80
16491;DHT22;8356;51.214;3.270;2023-07-13T03:32:09;461.50;2380.80
16491;DHT22;8356;51.214;3.270;2023-07-13T03:34:35;461.50;2380.80
16491;DHT22;8356;51.214;3.270;2023-07-13T03:37:00;461.50;2380.80
16491;DHT22;8356;51.214;3.270;2023-07-13T03:39:26;461.50;2380.80
16491;DHT22;8356;51.214;3.270;2023-07-13T03:41:52;461.50;2380.80
16491;DHT22;8356;51.214;3.270;2023-07-13T03:44:19;461.50;2380.80
16491;DHT22;8356;51.214;3.270;2023-07-13T03:46:45;461.60;2380.80
16491;DHT22;8356;51.214;3.270;2023-07-13T03:49:11;461.70;2380.80
16491;DHT22;8356;51.214;3.270;2023-07-13T03:51:36;461.70;2380.80
16491;DHT22;8356;51.214;3.270;2023-07-13T03:54:03;461.70;2380.80
16491;DHT22;8356;51.214;3.270;2023-07-13T03:56:29;461.70;2380.80
16491;DHT22;8356;51.214;3.270;2023-07-13T03:58:56;486.40;2380.80
16491;DHT22;8356;51.214;3.270;2023-07-13T04:01:23;461.70;2380.80
16491;DHT22;8356;51.214;3.270;2023-07-13T04:03:50;461.70;2380.80
16491;DHT22;8356;51.214;3.270;2023-07-13T04:06:21;461.70;2380.80
16491;DHT22;8356;51.214;3.270;2023-07-13T04:08:50;461.70;2380.80
16491;DHT22;8356;51.214;3.270;2023-07-13T04:11:17;461.70;2380.80
16491;DHT22;8356;51.214;3.270;2023-07-13T04:13:43;461.70;2380.80
16491;DHT22;8356;51.214;3.270;2023-07-13T04:16:09;461.70;2380.80
16491;DHT22;8356;51.214;3.270;2023-07-13T04:18:35;486.40;2380.80
16491;DHT22;8356;51.214;3.270;2023-07-13T04:21:01;461.70;2380.80
16491;DHT22;8356;51.214;3.270;2023-07-13T04:23:27;461.70;2380.80
16491;DHT22;8356;51.214;3.270;2023-07-13T04:25:53;461.70;2380.80
16491;DHT22;8356;51.214;3.270;2023-07-13T04:28:21;461.70;2380.80
16491;DHT22;8356;51.214;3.270;2023-07-13T04:30:47;461.70;2380.80
16491;DHT22;8356;51.214;3.270;2023-07-13T04:33:12;461.70;2380.80
16491;DHT22;8356;51.214;3.270;2023-07-13T04:35:38;461.70;2380.80
16491;DHT22;8356;51.214;3.270;2023-07-13T04:38:04;486.40;2380.80
16491;DHT22;8356;51.214;3.270;2023-07-13T04:40:30;486.40;2380.80
16491;DHT22;8356;51.214;3.270;2023-07-13T04:42:56;486.40;2380.80
16491;DHT22;8356;51.214;3.270;2023-07-13T04:45:22;486.40;2380.80
16491;DHT22;8356;51.214;3.270;2023-07-13T04:47:49;486.40;2380.80
16491;DHT22;8356;51.214;3.270;2023-07-13T04:50:15;486.40;2380.80
16491;DHT22;8356;51.214;3.270;2023-07-13T04:52:44;461.70;2380.80
16491;DHT22;8356;51.214;3.270;2023-07-13T04:55:10;486.40;2380.80
16491;DHT22;8356;51.214;3.270;2023-07-13T04:57:36;486.40;2380.80
16491;DHT22;8356;51.214;3.270;2023-07-13T05:00:02;486.40;2380.80
16491;DHT22;8356;51.214;3.270;2023-07-13T05:02:31;486.40;2380.80
16491;DHT22;8356;51.214;3.270;2023-07-13T05:04:58;486.40;2380.80
16491;DHT22;8356;51.214;3.270;2023-07-13T05:07:25;486.60;2380.80
16491;DHT22;8356;51.214;3.270;2023-07-13T05:09:51;486.70;2380.80
16491;DHT22;8356;51.214;3.270;2023-07-13T05:12:16;486.70;2380.80
16491;DHT22;8356;51.214;3.270;2023-07-13T05:14:42;486.80;2380.80
16491;DHT22;8356;51.214;3.270;2023-07-13T05:17:08;486.80;2380.80
16491;DHT22;8356;51.214;3.270;2023-07-13T05:19:34;486.80;2380.80
16491;DHT22;8356;51.214;3.270;2023-07-13T05:21:59;486.80;2380.80
16491;DHT22;8356;51.214;3.270;2023-07-13T05:24:25;486.80;2380.80
16491;DHT22;8356;51.214;3.270;2023-07-13T05:26:50;486.90;2380.80
16491;DHT22;8356;51.214;3.270;2023-07-13T05:29:16;487.00;2380.80
16491;DHT22;8356;51.214;3.270;2023-07-13T05:31:42;487.00;2380.80
16491;DHT22;8356;51.214;3.270;2023-07-13T05:34:07;487.00;2380.80
16491;DHT22;8356;51.214;3.270;2023-07-13T05:36:33;487.00;2380.80
16491;DHT22;8356;51.214;3.270;2023-07-13T05:38:59;487.10;2380.80
16491;DHT22;8356;51.214;3.270;2023-07-13T05:41:25;487.10;2380.80
16491;DHT22;8356;51.214;3.270;2023-07-13T05:43:50;487.10;2380.80
16491;DHT22;8356;51.214;3.270;2023-07-13T05:46:16;487.10;2380.80
16491;DHT22;8356;51.214;3.270;2023-07-13T05:48:42;487.20;2380.80
16491;DHT22;8356;51.214;3.270;2023-07-13T05:51:07;487.20;2380.80
16491;DHT22;8356;51.214;3.270;2023-07-13T05:53:34;487.20;2380.80
16491;DHT22;8356;51.214;3.270;2023-07-13T05:56:00;487.20;2380.80
16491;DHT22;8356;51.214;3.270;2023-07-13T05:58:26;487.20;2380.80
16491;DHT22;8356;51.214;3.270;2023-07-13T06:01:06;487.20;2380.80
16491;DHT22;8356;51.214;3.270;2023-07-13T06:03:33;487.20;2380.80
16491;DHT22;8356;51.214;3.270;2023-07-13T06:05:59;487.30;2380.80
16491;DHT22;8356;51.214;3.270;2023-07-13T06:08:27;512.10;2380.80
16491;DHT22;8356;51.214;3.270;2023-07-13T06:10:53;512.20;2380.80
16491;DHT22;8356;51.214;3.270;2023-07-13T06:13:19;512.20;2380.80
16491;DHT22;8356;51.214;3.270;2023-07-13T06:15:49;512.40;2380.80
16491;DHT22;8356;51.214;3.270;2023-07-13T06:18:15;537.70;2406.40
16491;DHT22;8356;51.214;3.270;2023-07-13T06:20:40;512.40;2380.80
16491;DHT22;8356;51.214;3.270;2023-07-13T06:23:06;512.40;2380.80
16491;DHT22;8356;51.214;3.270;2023-07-13T06:25:31;512.40;2380.80
16491;DHT22;8356;51.214;3.270;2023-07-13T06:27:57;512.30;2380.80
16491;DHT22;8356;51.214;3.270;2023-07-13T06:30:23;512.40;2380.80
16491;DHT22;8356;51.214;3.270;2023-07-13T06:32:49;512.40;2380.80
16491;DHT22;8356;51.214;3.270;2023-07-13T06:35:14;512.40;2380.80
16491;DHT22;8356;51.214;3.270;2023-07-13T06:37:40;512.40;2380.80
16491;DHT22;8356;51.214;3.270;2023-07-13T06:40:06;512.50;2380.80
16491;DHT22;8356;51.214;3.270;2023-07-13T06:42:32;512.40;2380.80
16491;DHT22;8356;51.214;3.270;2023-07-13T06:44:58;512.60;2380.80
16491;DHT22;8356;51.214;3.270;2023-07-13T06:47:23;512.60;2380.80
16491;DHT22;8356;51.214;3.270;2023-07-13T06:49:49;512.60;2380.80
16491;DHT22;8356;51.214;3.270;2023-07-13T06:52:14;512.70;2380.80
16491;DHT22;8356;51.214;3.270;2023-07-13T06:54:40;512.80;2380.80
16491;DHT22;8356;51.214;3.270;2023-07-13T06:57:06;512.90;2380.80
16491;DHT22;8356;51.214;3.270;2023-07-13T06:59:32;512.90;2380.80
16491;DHT22;8356;51.214;3.270;2023-07-13T07:01:58;537.60;2406.40
16491;DHT22;8356;51.214;3.270;2023-07-13T07:04:23;537.70;2406.40
16491;DHT22;8356;51.214;3.270;2023-07-13T07:06:49;537.70;2406.40
16491;DHT22;8356;51.214;3.270;2023-07-13T07:09:15;537.80;2406.40
16491;DHT22;8356;51.214;3.270;2023-07-13T07:11:42;537.90;2406.40
16491;DHT22;8356;51.214;3.270;2023-07-13T07:14:07;538.10;2406.40
16491;DHT22;8356;51.214;3.270;2023-07-13T07:16:33;538.20;2406.40
16491;DHT22;8356;51.214;3.270;2023-07-13T07:18:59;538.20;2406.40
16491;DHT22;8356;51.214;3.270;2023-07-13T07:21:24;538.20;2406.40
16491;DHT22;8356;51.214;3.270;2023-07-13T07:23:52;538.20;2406.40
16491;DHT22;8356;51.214;3.270;2023-07-13T07:26:17;538.40;2406.40
16491;DHT22;8356;51.214;3.270;2023-07-13T07:28:43;563.30;2432.00
16491;DHT22;8356;51.214;3.270;2023-07-13T07:31:09;563.20;2432.00
16491;DHT22;8356;51.214;3.270;2023-07-13T07:33:35;563.40;2432.00
16491;DHT22;8356;51.214;3.270;2023-07-13T07:36:01;563.70;2432.00
16491;DHT22;8356;51.214;3.270;2023-07-13T07:38:27;563.40;2432.00
16491;DHT22;8356;51.214;3.270;2023-07-13T07:40:53;563.30;2432.00
16491;DHT22;8356;51.214;3.270;2023-07-13T07:43:18;563.50;2432.00
16491;DHT22;8356;51.214;3.270;2023-07-13T07:45:45;538.50;2406.40
16491;DHT22;8356;51.214;3.270;2023-07-13T07:48:11;563.90;2432.00
16491;DHT22;8356;51.214;3.270;2023-07-13T07:50:36;564.10;2432.00
16491;DHT22;8356;51.214;3.270;2023-07-13T07:53:03;588.80;2432.00
16491;DHT22;8356;51.214;3.270;2023-07-13T07:55:29;588.90;2432.00
16491;DHT22;8356;51.214;3.270;2023-07-13T07:57:56;588.80;2432.00
16491;DHT22;8356;51.214;3.270;2023-07-13T08:00:22;589.00;2432.00
16491;DHT22;8356;51.214;3.270;2023-07-13T08:02:47;589.40;2432.00
16491;DHT22;8356;51.214;3.270;2023-07-13T08:05:13;589.40;2432.00
16491;DHT22;8356;51.214;3.270;2023-07-13T08:07:39;589.40;2432.00
16491;DHT22;8356;51.214;3.270;2023-07-13T08:10:06;589.00;2432.00
16491;DHT22;8356;51.214;3.270;2023-07-13T08:12:37;564.00;2432.00
16491;DHT22;8356;51.214;3.270;2023-07-13T08:15:03;563.70;2432.00
16491;DHT22;8356;51.214;3.270;2023-07-13T08:17:29;588.90;2432.00
16491;DHT22;8356;51.214;3.270;2023-07-13T08:19:55;563.50;2432.00
16491;DHT22;8356;51.214;3.270;2023-07-13T08:22:20;563.70;2432.00
16491;DHT22;8356;51.214;3.270;2023-07-13T08:24:46;563.90;2432.00
16491;DHT22;8356;51.214;3.270;2023-07-13T08:27:13;588.80;2432.00
16491;DHT22;8356;51.214;3.270;2023-07-13T08:29:39;589.20;2432.00
16491;DHT22;8356;51.214;3.270;2023-07-13T08:32:06;589.40;2432.00
16491;DHT22;8356;51.214;3.270;2023-07-13T08:34:35;589.40;2432.00
16491;DHT22;8356;51.214;3.270;2023-07-13T08:37:01;589.10;2432.00
16491;DHT22;8356;51.214;3.270;2023-07-13T08:39:27;588.80;2432.00
16491;DHT22;8356;51.214;3.270;2023-07-13T08:41:58;563.90;2432.00
16491;DHT22;8356;51.214;3.270;2023-07-13T08:44:37;563.50;2432.00
16491;DHT22;8356;51.214;3.270;2023-07-13T08:47:04;563.30;2432.00
16491;DHT22;8356;51.214;3.270;2023-07-13T08:49:33;563.60;2432.00
16491;DHT22;8356;51.214;3.270;2023-07-13T08:52:04;588.80;2432.00
16491;DHT22;8356;51.214;3.270;2023-07-13T08:54:36;589.20;2432.00
16491;DHT22;8356;51.214;3.270;2023-07-13T08:57:14;589.40;2432.00
16491;DHT22;8356;51.214;3.270;2023-07-13T08:59:40;589.10;2432.00
16491;DHT22;8356;51.214;3.270;2023-07-13T09:05:22;563.90;2432.00
16491;DHT22;8356;51.214;3.270;2023-07-13T09:10:52;563.50;2432.00
16491;DHT22;8356;51.214;3.270;2023-07-13T09:15:56;538.50;2406.40
16491;DHT22;8356;51.214;3.270;2023-07-13T09:18:31;538.40;2406.40
16491;DHT22;8356;51.214;3.270;2023-07-13T09:21:09;538.40;2406.40
16491;DHT22;8356;51.214;3.270;2023-07-13T09:23:36;538.30;2406.40
16491;DHT22;8356;51.214;3.270;2023-07-13T09:26:17;538.30;2406.40
16491;DHT22;8356;51.214;3.270;2023-07-13T09:28:49;538.50;2406.40
16491;DHT22;8356;51.214;3.270;2023-07-13T09:34:25;563.50;2432.00
16491;DHT22;8356;51.214;3.270;2023-07-13T09:36:51;563.70;2432.00
16491;DHT22;8356;51.214;3.270;2023-07-13T09:39:37;563.90;2432.00
16491;DHT22;8356;51.214;3.270;2023-07-13T09:42:11;588.90;2432.00
16491;DHT22;8356;51.214;3.270;2023-07-13T09:47:27;589.40;2432.00
16491;DHT22;8356;51.214;3.270;2023-07-13T09:50:04;589.50;2432.00
16491;DHT22;8356;51.214;3.270;2023-07-13T09:52:44;589.70;2432.00
16491;DHT22;8356;51.214;3.270;2023-07-13T09:55:33;614.80;2432.00
16491;DHT22;8356;51.214;3.270;2023-07-13T09:58:24;614.60;2432.00
16491;DHT22;8356;51.214;3.270;2023-07-13T10:01:01;589.50;2432.00
16491;DHT22;8356;51.214;3.270;2023-07-13T10:03:35;589.10;2432.00
16491;DHT22;8356;51.214;3.270;2023-07-13T10:06:16;588.80;2432.00
16491;DHT22;8356;51.214;3.270;2023-07-13T10:08:44;563.90;2432.00
16491;DHT22;8356;51.214;3.270;2023-07-13T10:11:27;563.70;2432.00
16491;DHT22;8356;51.214;3.270;2023-07-13T10:14:02;563.30;2432.00
16491;DHT22;8356;51.214;3.270;2023-07-13T10:16:34;538.40;2406.40
16491;DHT22;8356;51.214;3.270;2023-07-13T10:19:13;538.20;2406.40
16491;DHT22;8356;51.214;3.270;2023-07-13T10:21:53;538.10;2406.40
16491;DHT22;8356;51.214;3.270;2023-07-13T10:24:32;538.10;2406.40
16491;DHT22;8356;51.214;3.270;2023-07-13T10:27:28;538.10;2406.40
16491;DHT22;8356;51.214;3.270;2023-07-13T10:30:43;538.10;2406.40
16491;DHT22;8356;51.214;3.270;2023-07-13T10:33:03;538.50;2406.40
16491;DHT22;8356;51.214;3.270;2023-07-13T10:35:34;563.60;2432.00
16491;DHT22;8356;51.214;3.270;2023-07-13T10:38:06;564.10;2432.00
16491;DHT22;8356;51.214;3.270;2023-07-13T10:40:40;589.00;2432.00
16491;DHT22;8356;51.214;3.270;2023-07-13T10:43:28;589.50;2432.00
16491;DHT22;8356;51.214;3.270;2023-07-13T10:45:59;614.50;2432.00
16491;DHT22;8356;51.214;3.270;2023-07-13T10:48:25;614.80;2432.00
16491;DHT22;8356;51.214;3.270;2023-07-13T10:50:52;614.80;2432.00
16491;DHT22;8356;51.214;3.270;2023-07-13T10:53:33;614.90;2432.00
16491;DHT22;8356;51.214;3.270;2023-07-13T10:56:04;614.80;2432.00
16491;DHT22;8356;51.214;3.270;2023-07-13T10:58:43;614.90;2432.00
16491;DHT22;8356;51.214;3.270;2023-07-13T11:09:39;640.00;2432.00
16491;DHT22;8356;51.214;3.270;2023-07-13T11:11:45;640.10;2432.00
16491;DHT22;8356;51.214;3.270;2023-07-13T11:25:35;614.50;2432.00
16491;DHT22;8356;51.214;3.270;2023-07-13T11:30:49;589.00;2432.00
16491;DHT22;8356;51.214;3.270;2023-07-13T11:33:31;589.10;2432.00
16491;DHT22;8356;51.214;3.270;2023-07-13T11:36:16;614.40;2432.00
16491;DHT22;8356;51.214;3.270;2023-07-13T11:39:04;615.10;2432.00
16491;DHT22;8356;51.214;3.270;2023-07-13T11:41:43;640.20;2432.00
16491;DHT22;8356;51.214;3.270;2023-07-13T11:44:16;640.30;2432.00
16491;DHT22;8356;51.214;3.270;2023-07-13T11:46:54;640.10;2432.00
16491;DHT22;8356;51.214;3.270;2023-07-13T11:49:22;640.20;2432.00
16491;DHT22;8356;51.214;3.270;2023-07-13T11:51:48;640.30;2432.00
16491;DHT22;8356;51.214;3.270;2023-07-13T11:54:30;640.40;2432.00
16491;DHT22;8356;51.214;3.270;2023-07-13T11:57:44;640.60;2432.00
16491;DHT22;8356;51.214;3.270;2023-07-13T11:59:44;640.80;2432.00
16491;DHT22;8356;51.214;3.270;2023-07-13T12:04:52;640.30;2432.00
16491;DHT22;8356;51.214;3.270;2023-07-13T12:07:19;640.40;2432.00
16491;DHT22;8356;51.214;3.270;2023-07-13T12:09:45;640.30;2432.00
16491;DHT22;8356;51.214;3.270;2023-07-13T12:12:13;640.10;2432.00
16491;DHT22;8356;51.214;3.270;2023-07-13T12:14:39;615.20;2432.00
16491;DHT22;8356;51.214;3.270;2023-07-13T12:17:15;614.90;2432.00
16491;DHT22;8356;51.214;3.270;2023-07-13T12:19:41;614.70;2432.00
16491;DHT22;8356;51.214;3.270;2023-07-13T12:22:10;614.80;2432.00
16491;DHT22;8356;51.214;3.270;2023-07-13T12:24:37;615.00;2432.00
16491;DHT22;8356;51.214;3.270;2023-07-13T12:27:05;615.20;2432.00
16491;DHT22;8356;51.214;3.270;2023-07-13T12:29:33;615.30;2432.00
16491;DHT22;8356;51.214;3.270;2023-07-13T12:31:59;615.20;2432.00
16491;DHT22;8356;51.214;3.270;2023-07-13T12:34:26;615.20;2432.00
16491;DHT22;8356;51.214;3.270;2023-07-13T12:36:52;614.60;2432.00
16491;DHT22;8356;51.214;3.270;2023-07-13T12:39:37;615.20;2432.00
16491;DHT22;8356;51.214;3.270;2023-07-13T12:42:28;615.00;2432.00
16491;DHT22;8356;51.214;3.270;2023-07-13T12:45:01;614.70;2432.00
16491;DHT22;8356;51.214;3.270;2023-07-13T12:47:28;614.80;2432.00
16491;DHT22;8356;51.214;3.270;2023-07-13T12:49:58;615.20;2432.00
16491;DHT22;8356;51.214;3.270;2023-07-13T12:52:32;640.10;2432.00
16491;DHT22;8356;51.214;3.270;2023-07-13T12:55:09;615.20;2432.00
16491;DHT22;8356;51.214;3.270;2023-07-13T12:57:56;615.00;2432.00
16491;DHT22;8356;51.214;3.270;2023-07-13T13:00:29;615.10;2432.00
16491;DHT22;8356;51.214;3.270;2023-07-13T13:02:58;615.20;2432.00
16491;DHT22;8356;51.214;3.270;2023-07-13T13:05:29;615.00;2432.00
16491;DHT22;8356;51.214;3.270;2023-07-13T13:07:55;614.80;2432.00
16491;DHT22;8356;51.214;3.270;2023-07-13T13:10:21;614.70;2432.00
16491;DHT22;8356;51.214;3.270;2023-07-13T13:12:46;615.10;2432.00
16491;DHT22;8356;51.214;3.270;2023-07-13T13:15:13;640.20;2432.00
16491;DHT22;8356;51.214;3.270;2023-07-13T13:17:39;640.30;2432.00
16491;DHT22;8356;51.214;3.270;2023-07-13T13:20:16;640.30;2432.00
16491;DHT22;8356;51.214;3.270;2023-07-13T13:22:42;640.10;2432.00
16491;DHT22;8356;51.214;3.270;2023-07-13T13:25:10;640.00;2432.00
16491;DHT22;8356;51.214;3.270;2023-07-13T13:27:36;615.30;2432.00
16491;DHT22;8356;51.214;3.270;2023-07-13T13:30:03;615.30;2432.00
16491;DHT22;8356;51.214;3.270;2023-07-13T13:32:28;615.10;2432.00
16491;DHT22;8356;51.214;3.270;2023-07-13T13:34:54;614.90;2432.00
16491;DHT22;8356;51.214;3.270;2023-07-13T13:37:22;614.70;2432.00
16491;DHT22;8356;51.214;3.270;2023-07-13T13:39:49;614.60;2432.00
16491;DHT22;8356;51.214;3.270;2023-07-13T13:42:16;589.70;2432.00
16491;DHT22;8356;51.214;3.270;2023-07-13T13:44:41;589.50;2432.00
16491;DHT22;8356;51.214;3.270;2023-07-13T13:49:50;614.40;2432.00
16491;DHT22;8356;51.214;3.270;2023-07-13T13:52:15;614.60;2432.00
16491;DHT22;8356;51.214;3.270;2023-07-13T13:54:41;614.60;2432.00
16491;DHT22;8356;51.214;3.270;2023-07-13T13:57:08;614.60;2432.00
16491;DHT22;8356;51.214;3.270;2023-07-13T13:59:33;614.90;2432.00
16491;DHT22;8356;51.214;3.270;2023-07-13T14:02:25;615.00;2432.00
16491;DHT22;8356;51.214;3.270;2023-07-13T14:04:58;615.20;2432.00
16491;DHT22;8356;51.214;3.270;2023-07-13T14:07:25;615.30;2432.00
16491;DHT22;8356;51.214;3.270;2023-07-13T14:09:56;640.30;2432.00
16491;DHT22;8356;51.214;3.270;2023-07-13T14:12:22;640.20;2432.00
16491;DHT22;8356;51.214;3.270;2023-07-13T14:14:51;640.00;2432.00
16491;DHT22;8356;51.214;3.270;2023-07-13T14:17:25;615.30;2432.00
16491;DHT22;8356;51.214;3.270;2023-07-13T14:19:52;615.30;2432.00
16491;DHT22;8356;51.214;3.270;2023-07-13T14:22:23;640.10;2432.00
16491;DHT22;8356;51.214;3.270;2023-07-13T14:24:51;640.10;2432.00
16491;DHT22;8356;51.214;3.270;2023-07-13T14:27:17;640.30;2432.00
16491;DHT22;8356;51.214;3.270;2023-07-13T14:29:42;640.20;2432.00
16491;DHT22;8356;51.214;3.270;2023-07-13T14:32:11;640.10;2432.00
16491;DHT22;8356;51.214;3.270;2023-07-13T14:34:38;615.30;2432.00
16491;DHT22;8356;51.214;3.270;2023-07-13T14:37:04;615.20;2432.00
16491;DHT22;8356;51.214;3.270;2023-07-13T14:39:30;615.30;2432.00
16491;DHT22;8356;51.214;3.270;2023-07-13T14:41:57;615.30;2432.00
16491;DHT22;8356;51.214;3.270;2023-07-13T14:44:30;615.20;2432.00
16491;DHT22;8356;51.214;3.270;2023-07-13T14:46:58;615.20;2432.00
16491;DHT22;8356;51.214;3.270;2023-07-13T14:49:29;615.20;2432.00
16491;DHT22;8356;51.214;3.270;2023-07-13T14:52:00;615.00;2432.00
16491;DHT22;8356;51.214;3.270;2023-07-13T14:54:27;614.90;2432.00
16491;DHT22;8356;51.214;3.270;2023-07-13T14:56:53;614.80;2432.00
16491;DHT22;8356;51.214;3.270;2023-07-13T14:59:19;614.60;2432.00
16491;DHT22;8356;51.214;3.270;2023-07-13T15:01:45;614.70;2432.00
16491;DHT22;8356;51.214;3.270;2023-07-13T15:04:11;614.80;2432.00
16491;DHT22;8356;51.214;3.270;2023-07-13T15:07:13;615.00;2432.00
16491;DHT22;8356;51.214;3.270;2023-07-13T15:09:41;615.10;2432.00
16491;DHT22;8356;51.214;3.270;2023-07-13T15:12:07;615.20;2432.00
16491;DHT22;8356;51.214;3.270;2023-07-13T15:14:33;615.30;2432.00
16491;DHT22;8356;51.214;3.270;2023-07-13T15:16:59;640.10;2432.00
16491;DHT22;8356;51.214;3.270;2023-07-13T15:19:25;640.10;2432.00
16491;DHT22;8356;51.214;3.270;2023-07-13T15:21:52;640.20;2432.00
16491;DHT22;8356;51.214;3.270;2023-07-13T15:24:20;615.30;2432.00
16491;DHT22;8356;51.214;3.270;2023-07-13T15:26:47;615.30;2432.00
16491;DHT22;8356;51.214;3.270;2023-07-13T15:29:15;615.30;2432.00
16491;DHT22;8356;51.214;3.270;2023-07-13T15:31:41;615.30;2432.00
16491;DHT22;8356;51.214;3.270;2023-07-13T15:34:13;640.10;2432.00
16491;DHT22;8356;51.214;3.270;2023-07-13T15:36:39;640.10;2432.00
16491;DHT22;8356;51.214;3.270;2023-07-13T15:39:05;640.10;2432.00
16491;DHT22;8356;51.214;3.270;2023-07-13T15:41:32;640.10;2432.00
16491;DHT22;8356;51.214;3.270;2023-07-13T15:43:58;640.10;2432.00
16491;DHT22;8356;51.214;3.270;2023-07-13T15:46:25;640.30;2432.00
16491;DHT22;8356;51.214;3.270;2023-07-13T15:48:53;640.10;2432.00
16491;DHT22;8356;51.214;3.270;2023-07-13T15:51:30;640.10;2432.00
16491;DHT22;8356;51.214;3.270;2023-07-13T15:54:01;640.10;2432.00
16491;DHT22;8356;51.214;3.270;2023-07-13T15:56:35;640.00;2432.00